Time;durP1;ratioP1;P1;durP2;ratioP2;P2;SDS_P1;SDS_P2;PMS_P1;PMS_P2;Temp;Humidity;BMP_temperature;BMP_pressure;BME280_temperature;BME280_humidity;BME280_pressure;Samples;Min_cycle;Max_cycle;Signal;HPM_P1;HPM_P2
2023/09/01 00:00:29;;;;;;;15.88;4.68;;;16.80;99.90;;;;;;5045256;28;20116;-72
2023/09/01 00:02:55;;;;;;;11.50;4.15;;;16.70;99.90;;;;;;5042699;28;20129;-72
2023/09/01 00:05:21;;;;;;;13.82;5.05;;;16.80;99.90;;;;;;5046558;28;20035;-72
2023/09/01 00:07:47;;;;;;;11.32;5.00;;;16.70;99.90;;;;;;5045930;28;20041;-72
2023/09/01 00:10:12;;;;;;;8.75;4.40;;;16.70;99.90;;;;;;5045442;28;20536;-72
2023/09/01 00:12:38;;;;;;;11.13;4.90;;;16.70;99.90;;;;;;5049219;28;20029;-72
2023/09/01 00:15:04;;;;;;;14.80;5.70;;;16.70;99.90;;;;;;5046760;28;20017;-72
2023/09/01 00:17:30;;;;;;;12.68;6.20;;;16.60;99.90;;;;;;5048634;28;20025;-72
2023/09/01 00:19:55;;;;;;;11.45;5.30;;;16.50;99.90;;;;;;5037817;28;20148;-71
2023/09/01 00:22:21;;;;;;;8.68;5.32;;;16.60;99.90;;;;;;5037410;28;20489;-72
2023/09/01 00:24:46;;;;;;;10.32;5.43;;;16.50;99.90;;;;;;5041669;28;20120;-72
2023/09/01 00:27:12;;;;;;;11.65;5.35;;;16.50;99.90;;;;;;5043405;28;20018;-72
2023/09/01 00:29:38;;;;;;;12.75;5.22;;;16.50;99.90;;;;;;5043039;28;20484;-72
2023/09/01 00:32:04;;;;;;;9.15;5.43;;;16.40;99.90;;;;;;5046535;28;20448;-72
2023/09/01 00:34:30;;;;;;;14.25;5.43;;;16.50;99.90;;;;;;5040702;28;20031;-72
2023/09/01 00:36:57;;;;;;;12.63;5.22;;;16.50;99.90;;;;;;5044951;28;20369;-71
2023/09/01 00:39:22;;;;;;;13.32;5.60;;;16.60;99.90;;;;;;5040092;28;20079;-72
2023/09/01 00:41:48;;;;;;;12.45;5.25;;;16.60;99.90;;;;;;5043853;28;20927;-72
2023/09/01 00:44:14;;;;;;;12.50;6.25;;;16.60;99.90;;;;;;5044920;28;20036;-72
2023/09/01 00:46:43;;;;;;;13.40;6.18;;;16.60;99.90;;;;;;5042029;28;20104;-72
2023/09/01 00:49:10;;;;;;;11.00;5.95;;;16.70;99.90;;;;;;5046035;28;20017;-72
2023/09/01 00:51:36;;;;;;;11.48;6.57;;;16.60;99.90;;;;;;5044474;28;20051;-72
2023/09/01 00:54:02;;;;;;;16.92;6.28;;;16.70;99.90;;;;;;5043807;28;20025;-71
2023/09/01 00:56:28;;;;;;;12.35;5.47;;;16.70;99.90;;;;;;5039402;28;20029;-72
2023/09/01 00:58:54;;;;;;;10.48;5.90;;;16.70;99.90;;;;;;5044774;28;20017;-72
2023/09/01 01:01:19;;;;;;;10.57;6.85;;;16.70;99.90;;;;;;5040524;28;20421;-72
2023/09/01 01:03:47;;;;;;;9.35;6.63;;;16.80;99.90;;;;;;5043602;28;20044;-71
2023/09/01 01:06:29;;;;;;;13.10;6.78;;;16.80;99.90;;;;;;5044825;28;20499;-71
2023/09/01 01:09:08;;;;;;;12.63;6.03;;;16.80;99.90;;;;;;5039720;28;20096;-71
2023/09/01 01:11:51;;;;;;;15.75;7.05;;;16.90;99.90;;;;;;5047584;28;20029;-72
2023/09/01 01:14:36;;;;;;;10.25;6.20;;;16.80;99.90;;;;;;5043577;28;20025;-71
2023/09/01 01:17:05;;;;;;;15.35;5.78;;;16.90;99.90;;;;;;5048668;28;20416;-71
2023/09/01 01:19:41;;;;;;;10.15;5.38;;;16.90;99.90;;;;;;5043719;28;20100;-72
2023/09/01 01:22:07;;;;;;;14.30;6.22;;;16.90;99.90;;;;;;5045760;28;20017;-72
2023/09/01 01:24:35;;;;;;;9.02;4.90;;;16.90;99.90;;;;;;5041216;28;20033;-72
2023/09/01 01:27:01;;;;;;;12.02;5.43;;;16.70;99.90;;;;;;5041245;28;20021;-71
2023/09/01 01:29:26;;;;;;;13.43;5.25;;;16.50;99.90;;;;;;5040827;28;20483;-72
2023/09/01 01:31:53;;;;;;;11.30;5.63;;;16.40;99.90;;;;;;5040801;28;20025;-72
2023/09/01 01:34:34;;;;;;;13.05;5.68;;;16.50;99.90;;;;;;5037618;28;20017;-71
2023/09/01 01:37:26;;;;;;;14.57;5.22;;;16.50;99.90;;;;;;5046798;28;20017;-72
2023/09/01 01:39:54;;;;;;;10.13;5.18;;;16.60;99.90;;;;;;5040379;28;20025;-71
2023/09/01 01:42:21;;;;;;;9.98;6.18;;;16.80;99.90;;;;;;5040909;28;20024;-72
2023/09/01 01:44:50;;;;;;;15.63;7.18;;;16.80;99.90;;;;;;5042770;28;20041;-71
2023/09/01 01:47:17;;;;;;;13.23;6.40;;;16.80;99.90;;;;;;5041502;28;20030;-71
2023/09/01 01:49:43;;;;;;;11.40;6.45;;;16.70;99.90;;;;;;5038634;28;20504;-72
2023/09/01 01:52:08;;;;;;;9.77;5.85;;;16.60;99.90;;;;;;5050518;28;20100;-71
2023/09/01 01:54:34;;;;;;;12.18;6.28;;;16.60;99.90;;;;;;5041242;28;20387;-72
2023/09/01 01:57:00;;;;;;;11.43;6.28;;;16.60;99.90;;;;;;5038424;28;20048;-72
2023/09/01 01:59:25;;;;;;;12.65;5.97;;;16.50;99.90;;;;;;5043642;28;20025;-72
2023/09/01 02:01:51;;;;;;;15.52;6.45;;;16.50;99.90;;;;;;5042065;28;20037;-72
2023/09/01 02:04:17;;;;;;;9.85;6.53;;;16.50;99.90;;;;;;5044003;28;20029;-72
2023/09/01 02:06:43;;;;;;;11.48;6.63;;;16.60;99.90;;;;;;5041534;28;20105;-71
2023/09/01 02:09:09;;;;;;;10.80;6.65;;;16.60;99.90;;;;;;5043500;28;20413;-72
2023/09/01 02:11:38;;;;;;;14.55;7.25;;;16.60;99.90;;;;;;5038604;28;20021;-72
2023/09/01 02:14:07;;;;;;;14.70;7.65;;;16.60;99.90;;;;;;5044489;28;20444;-72
2023/09/01 02:16:33;;;;;;;14.32;6.72;;;16.70;99.90;;;;;;5039872;28;20032;-72
2023/09/01 02:18:58;;;;;;;14.85;7.45;;;16.70;99.90;;;;;;5041434;28;20033;-71
2023/09/01 02:21:25;;;;;;;12.90;7.10;;;16.70;99.90;;;;;;5044813;28;20477;-71
2023/09/01 02:23:51;;;;;;;12.63;7.75;;;16.60;99.90;;;;;;5049961;28;20515;-71
2023/09/01 02:26:21;;;;;;;18.10;7.53;;;16.70;99.90;;;;;;5048166;28;20024;-72
2023/09/01 02:28:47;;;;;;;13.38;7.85;;;16.70;99.90;;;;;;5035420;28;20385;-71
2023/09/01 02:31:14;;;;;;;13.32;8.20;;;16.80;99.90;;;;;;5042997;28;20025;-71
2023/09/01 02:33:40;;;;;;;17.15;7.97;;;16.80;99.90;;;;;;5051873;28;20021;-72
2023/09/01 02:36:22;;;;;;;19.48;8.48;;;16.80;99.90;;;;;;5051510;28;20074;-71
2023/09/01 02:38:47;;;;;;;9.88;7.75;;;16.70;99.90;;;;;;5044591;28;20060;-71
2023/09/01 02:41:13;;;;;;;10.68;7.53;;;16.70;99.90;;;;;;5045553;28;20064;-72
2023/09/01 02:43:39;;;;;;;12.82;7.35;;;16.70;99.90;;;;;;5042794;28;20026;-72
2023/09/01 02:46:04;;;;;;;14.13;6.85;;;16.70;99.90;;;;;;5046807;28;20092;-72
2023/09/01 02:48:30;;;;;;;11.60;7.07;;;16.70;99.90;;;;;;5042473;28;20545;-72
2023/09/01 02:50:58;;;;;;;13.63;7.35;;;16.60;99.90;;;;;;5047241;28;20016;-72
2023/09/01 02:53:24;;;;;;;13.57;6.82;;;16.50;99.90;;;;;;5047820;28;20062;-72
2023/09/01 02:55:50;;;;;;;12.85;7.38;;;16.60;99.90;;;;;;5046230;28;20040;-72
2023/09/01 02:58:16;;;;;;;12.32;7.35;;;16.60;99.90;;;;;;5040258;28;20029;-72
2023/09/01 03:00:44;;;;;;;16.48;8.23;;;16.50;99.90;;;;;;5042381;28;20104;-72
2023/09/01 03:03:10;;;;;;;13.07;6.35;;;16.40;99.90;;;;;;5046349;28;20028;-72
2023/09/01 03:05:36;;;;;;;8.18;5.53;;;16.50;99.90;;;;;;5050717;28;20028;-72
2023/09/01 03:08:02;;;;;;;11.35;6.70;;;16.60;99.90;;;;;;5040864;28;20032;-72
2023/09/01 03:10:27;;;;;;;14.73;6.85;;;16.70;99.90;;;;;;5050374;28;20094;-71
2023/09/01 03:12:53;;;;;;;11.32;6.63;;;16.70;99.90;;;;;;5049570;28;20035;-72
2023/09/01 03:15:19;;;;;;;10.25;6.28;;;16.80;99.90;;;;;;5044531;28;20104;-71
2023/09/01 03:17:44;;;;;;;15.70;6.60;;;16.80;99.90;;;;;;5045301;28;20104;-72
2023/09/01 03:20:12;;;;;;;10.00;6.22;;;16.90;99.90;;;;;;5047619;28;20541;-72
2023/09/01 03:22:38;;;;;;;12.52;7.57;;;17.00;99.90;;;;;;5051669;28;20407;-71
2023/09/01 03:25:09;;;;;;;13.25;7.05;;;17.00;99.90;;;;;;5044245;28;20519;-72
2023/09/01 03:27:36;;;;;;;11.85;6.50;;;17.00;99.90;;;;;;5044396;28;20025;-72
2023/09/01 03:30:02;;;;;;;17.35;8.38;;;17.00;99.90;;;;;;5041681;28;20557;-72
2023/09/01 03:32:29;;;;;;;11.50;7.50;;;16.90;99.90;;;;;;5046329;28;20051;-72
2023/09/01 03:34:55;;;;;;;16.00;7.20;;;16.90;99.90;;;;;;5044001;28;20028;-71
2023/09/01 03:37:22;;;;;;;11.68;6.75;;;16.80;99.90;;;;;;5045605;28;20029;-72
2023/09/01 03:39:48;;;;;;;11.75;6.95;;;16.70;99.90;;;;;;5040974;28;20032;-72
2023/09/01 03:42:14;;;;;;;11.70;6.65;;;16.80;99.90;;;;;;5045543;28;20048;-72
2023/09/01 03:44:40;;;;;;;10.25;7.00;;;16.80;99.90;;;;;;5041104;28;20460;-71
2023/09/01 03:47:06;;;;;;;12.40;7.30;;;16.70;99.90;;;;;;5045873;28;20381;-72
2023/09/01 03:49:32;;;;;;;9.55;6.18;;;16.70;99.90;;;;;;5046919;28;20532;-71
2023/09/01 03:51:58;;;;;;;12.23;7.10;;;16.70;99.90;;;;;;5048133;28;20029;-72
2023/09/01 03:54:24;;;;;;;9.95;7.10;;;16.70;99.90;;;;;;5040304;28;20474;-72
2023/09/01 03:56:50;;;;;;;13.30;7.28;;;16.80;99.90;;;;;;5045183;28;20504;-72
2023/09/01 03:59:16;;;;;;;11.55;6.57;;;16.90;99.90;;;;;;5044445;28;20044;-72
2023/09/01 04:01:44;;;;;;;13.10;6.55;;;16.90;99.90;;;;;;5043087;28;20036;-72
2023/09/01 04:04:10;;;;;;;11.98;6.75;;;16.90;99.90;;;;;;5049296;28;20119;-72
2023/09/01 04:06:36;;;;;;;9.98;6.82;;;17.00;99.90;;;;;;5040715;28;20565;-72
2023/09/01 04:09:01;;;;;;;14.23;7.28;;;17.00;99.90;;;;;;5048124;28;20122;-72
2023/09/01 04:11:27;;;;;;;12.20;7.00;;;16.90;99.90;;;;;;5043159;28;20028;-71
2023/09/01 04:13:55;;;;;;;13.40;7.13;;;16.90;99.90;;;;;;5046167;28;20037;-72
2023/09/01 04:16:21;;;;;;;11.50;6.93;;;16.90;99.90;;;;;;5043037;28;20017;-72
2023/09/01 04:18:47;;;;;;;14.00;7.90;;;16.90;99.90;;;;;;5041398;28;20036;-72
2023/09/01 04:21:13;;;;;;;11.18;7.55;;;17.00;99.90;;;;;;5045700;28;20097;-71
2023/09/01 04:23:40;;;;;;;12.48;7.75;;;17.00;99.90;;;;;;5041179;28;20151;-71
2023/09/01 04:26:07;;;;;;;17.25;8.90;;;17.00;99.90;;;;;;5037445;28;20028;-72
2023/09/01 04:28:33;;;;;;;13.75;9.00;;;17.10;99.90;;;;;;5041071;28;20043;-71
2023/09/01 04:30:59;;;;;;;15.50;8.65;;;17.10;99.90;;;;;;5045489;28;20462;-71
2023/09/01 04:33:29;;;;;;;11.63;8.27;;;17.10;99.90;;;;;;5046357;28;20025;-72
2023/09/01 04:36:05;;;;;;;14.45;8.25;;;17.00;99.90;;;;;;5042687;28;20075;-71
2023/09/01 04:38:31;;;;;;;13.63;7.35;;;16.90;99.90;;;;;;5046101;28;20025;-71
2023/09/01 04:40:58;;;;;;;12.80;7.20;;;16.90;99.90;;;;;;5046630;28;20469;-71
2023/09/01 04:43:28;;;;;;;16.10;7.90;;;16.90;99.90;;;;;;5043100;28;20409;-72
2023/09/01 04:45:54;;;;;;;12.43;7.88;;;16.90;99.90;;;;;;5040206;28;20489;-72
2023/09/01 04:48:21;;;;;;;16.50;8.80;;;16.90;99.90;;;;;;5042222;28;20480;-72
2023/09/01 04:50:47;;;;;;;12.35;9.40;;;16.80;99.90;;;;;;5048445;28;20013;-72
2023/09/01 04:53:12;;;;;;;17.70;9.63;;;16.90;99.90;;;;;;5046603;28;20017;-72
2023/09/01 04:55:38;;;;;;;16.95;9.82;;;17.00;99.90;;;;;;5040984;28;20019;-72
2023/09/01 04:58:04;;;;;;;19.25;10.57;;;17.00;99.90;;;;;;5043114;28;20053;-72
2023/09/01 05:00:30;;;;;;;15.52;10.93;;;17.00;99.90;;;;;;5044432;28;20033;-72
2023/09/01 05:02:55;;;;;;;15.90;9.70;;;17.00;99.90;;;;;;5042376;28;20377;-72
2023/09/01 05:05:21;;;;;;;13.68;9.77;;;17.00;99.90;;;;;;5040563;28;20032;-71
2023/09/01 05:07:47;;;;;;;15.05;8.98;;;16.90;99.90;;;;;;5043918;28;20044;-72
2023/09/01 05:10:13;;;;;;;17.38;9.80;;;16.90;99.90;;;;;;5041929;28;20033;-72
2023/09/01 05:12:38;;;;;;;13.85;8.75;;;17.00;99.90;;;;;;5040511;28;20028;-72
2023/09/01 05:15:05;;;;;;;13.57;8.20;;;16.90;99.90;;;;;;5045199;28;20025;-72
2023/09/01 05:17:31;;;;;;;13.57;8.18;;;16.90;99.90;;;;;;5041007;28;20027;-71
2023/09/01 05:19:57;;;;;;;11.18;7.88;;;16.90;99.90;;;;;;5040459;28;20034;-72
2023/09/01 05:22:23;;;;;;;16.50;8.25;;;17.00;99.90;;;;;;5050021;28;20048;-72
2023/09/01 05:24:49;;;;;;;17.75;10.82;;;17.00;99.90;;;;;;5038157;28;20371;-72
2023/09/01 05:27:19;;;;;;;18.73;10.38;;;17.10;99.90;;;;;;5038425;28;20032;-71
2023/09/01 05:29:45;;;;;;;14.95;10.20;;;17.10;99.90;;;;;;5043246;28;20026;-72
2023/09/01 05:32:11;;;;;;;16.60;10.57;;;17.10;99.90;;;;;;5041337;28;20108;-73
2023/09/01 05:34:37;;;;;;;16.00;8.88;;;17.10;99.90;;;;;;5046461;28;20385;-72
2023/09/01 05:37:03;;;;;;;16.73;11.50;;;17.20;99.90;;;;;;5042159;28;20028;-72
2023/09/01 05:39:29;;;;;;;13.73;10.25;;;17.20;99.90;;;;;;5042170;28;20147;-72
2023/09/01 05:41:55;;;;;;;15.07;10.02;;;17.20;99.90;;;;;;5046735;28;20367;-72
2023/09/01 05:44:20;;;;;;;19.23;11.10;;;17.20;99.90;;;;;;5042189;28;20029;-72
2023/09/01 05:46:46;;;;;;;14.50;9.57;;;17.20;99.90;;;;;;5042157;28;20052;-72
2023/09/01 05:49:12;;;;;;;15.95;9.80;;;17.20;99.90;;;;;;5042010;28;20425;-72
2023/09/01 05:51:37;;;;;;;10.88;8.73;;;17.10;99.90;;;;;;5052191;28;20031;-72
2023/09/01 05:54:03;;;;;;;14.60;9.57;;;17.10;99.90;;;;;;5043300;28;20061;-73
2023/09/01 05:56:29;;;;;;;15.75;10.35;;;17.20;99.90;;;;;;5039598;28;20093;-72
2023/09/01 05:58:54;;;;;;;16.80;11.20;;;17.20;99.90;;;;;;5042317;28;20039;-73
2023/09/01 06:01:20;;;;;;;18.58;11.35;;;17.20;99.90;;;;;;5040517;28;20486;-72
2023/09/01 06:03:46;;;;;;;19.65;10.13;;;17.30;99.90;;;;;;5042703;28;20035;-74
2023/09/01 06:06:11;;;;;;;18.45;12.18;;;17.30;99.90;;;;;;5048190;28;20033;-73
2023/09/01 06:08:37;;;;;;;19.75;12.20;;;17.30;99.90;;;;;;5046055;28;20052;-73
2023/09/01 06:11:08;;;;;;;14.68;11.63;;;17.30;99.90;;;;;;5047111;28;20591;-72
2023/09/01 06:13:34;;;;;;;16.88;11.90;;;17.40;99.90;;;;;;5044690;28;20105;-73
2023/09/01 06:16:03;;;;;;;19.77;11.95;;;17.50;99.90;;;;;;5048845;28;20125;-73
2023/09/01 06:18:29;;;;;;;17.15;11.15;;;17.40;99.90;;;;;;5047484;28;20097;-75
2023/09/01 06:20:55;;;;;;;22.55;12.48;;;17.30;99.90;;;;;;5050435;28;20116;-74
2023/09/01 06:23:21;;;;;;;18.73;11.77;;;17.40;99.90;;;;;;5051035;28;20116;-73
2023/09/01 06:25:46;;;;;;;17.45;12.15;;;17.40;99.90;;;;;;5046004;28;20082;-74
2023/09/01 06:28:13;;;;;;;18.45;11.00;;;17.40;99.90;;;;;;5047743;28;20024;-73
2023/09/01 06:30:42;;;;;;;18.23;11.13;;;17.40;99.90;;;;;;5049495;28;20025;-72
2023/09/01 06:33:09;;;;;;;18.13;12.55;;;17.40;99.90;;;;;;5046468;28;20065;-72
2023/09/01 06:35:35;;;;;;;18.33;11.40;;;17.40;99.90;;;;;;5044358;28;20033;-73
2023/09/01 06:38:05;;;;;;;22.33;12.73;;;17.40;99.90;;;;;;5054330;28;20025;-73
2023/09/01 06:40:32;;;;;;;18.85;12.88;;;17.40;99.90;;;;;;5043574;28;20048;-74
2023/09/01 06:42:57;;;;;;;20.92;12.75;;;17.40;99.90;;;;;;5048534;28;20459;-74
2023/09/01 06:45:23;;;;;;;13.18;11.07;;;17.40;99.90;;;;;;5047990;28;20033;-74
2023/09/01 06:47:54;;;;;;;20.75;14.75;;;17.50;99.90;;;;;;5043733;28;20074;-74
2023/09/01 06:50:21;;;;;;;18.33;12.60;;;17.50;99.90;;;;;;5041322;28;20024;-72
2023/09/01 06:52:47;;;;;;;20.52;14.60;;;17.50;99.90;;;;;;5040845;28;20428;-73
2023/09/01 06:55:12;;;;;;;22.50;13.90;;;17.50;99.90;;;;;;5043686;28;20553;-73
2023/09/01 06:57:39;;;;;;;27.40;15.00;;;17.50;99.90;;;;;;5050946;28;20028;-72
2023/09/01 07:00:05;;;;;;;20.90;13.52;;;17.50;99.90;;;;;;5048324;28;20032;-73
2023/09/01 07:02:31;;;;;;;19.15;12.90;;;17.40;99.90;;;;;;5043160;28;20036;-72
2023/09/01 07:04:57;;;;;;;28.08;15.13;;;17.50;99.90;;;;;;5042949;28;20029;-73
2023/09/01 07:07:23;;;;;;;18.08;14.02;;;17.40;99.90;;;;;;5044635;28;20028;-77
2023/09/01 07:09:48;;;;;;;16.15;12.80;;;17.50;99.90;;;;;;5043430;28;20025;-74
2023/09/01 07:12:15;;;;;;;17.30;13.00;;;17.50;99.90;;;;;;5045193;28;20025;-72
2023/09/01 07:14:40;;;;;;;20.30;14.20;;;17.60;99.90;;;;;;5046096;28;20033;-72
2023/09/01 07:17:06;;;;;;;30.95;15.85;;;17.70;99.90;;;;;;5044517;28;20017;-73
2023/09/01 07:19:32;;;;;;;16.63;13.20;;;17.70;99.90;;;;;;5043353;28;20021;-72
2023/09/01 07:21:58;;;;;;;20.25;13.00;;;17.70;99.90;;;;;;5041535;28;20029;-73
2023/09/01 07:24:23;;;;;;;15.50;11.95;;;17.70;99.90;;;;;;5046836;28;20037;-72
2023/09/01 07:26:49;;;;;;;21.83;13.73;;;17.70;99.90;;;;;;5040285;28;20037;-72
2023/09/01 07:29:15;;;;;;;24.13;15.63;;;17.70;99.90;;;;;;5049911;28;20769;-76
2023/09/01 07:31:40;;;;;;;33.45;14.93;;;17.70;99.90;;;;;;5040790;28;20052;-72
2023/09/01 07:34:06;;;;;;;21.50;13.48;;;17.70;99.90;;;;;;5048403;28;20472;-73
2023/09/01 07:36:32;;;;;;;32.17;16.27;;;17.70;99.90;;;;;;5044050;28;20071;-72
2023/09/01 07:38:58;;;;;;;19.42;12.95;;;17.70;99.90;;;;;;5047656;28;20013;-72
2023/09/01 07:41:23;;;;;;;31.75;15.50;;;17.70;99.90;;;;;;5047233;28;20040;-70
2023/09/01 07:43:49;;;;;;;20.52;13.27;;;17.70;99.90;;;;;;5042418;28;20037;-72
2023/09/01 07:46:15;;;;;;;26.17;14.02;;;17.70;99.90;;;;;;5046490;28;20108;-75
2023/09/01 07:48:42;;;;;;;26.35;14.32;;;17.70;99.90;;;;;;5040830;28;20024;-71
2023/09/01 07:51:08;;;;;;;24.23;14.80;;;17.80;99.90;;;;;;5046501;28;20499;-78
2023/09/01 07:53:34;;;;;;;21.30;12.88;;;17.80;99.90;;;;;;5043118;28;20021;-72
2023/09/01 07:56:00;;;;;;;23.63;15.75;;;17.90;99.90;;;;;;5047208;28;20033;-75
2023/09/01 07:58:25;;;;;;;13.98;11.68;;;17.90;99.90;;;;;;5050597;28;20100;-72
2023/09/01 08:00:52;;;;;;;17.13;13.02;;;17.90;99.90;;;;;;5038804;28;20040;-73
2023/09/01 08:03:17;;;;;;;20.85;13.90;;;17.90;99.90;;;;;;5041120;28;20468;-72
2023/09/01 08:05:43;;;;;;;23.17;15.70;;;17.80;99.90;;;;;;5047037;28;20105;-71
2023/09/01 08:08:13;;;;;;;16.65;13.30;;;17.80;99.90;;;;;;5041003;28;20401;-72
2023/09/01 08:10:38;;;;;;;18.65;13.35;;;17.70;99.90;;;;;;5041568;28;20043;-71
2023/09/01 08:13:05;;;;;;;39.00;16.90;;;17.80;99.90;;;;;;5041849;28;20486;-72
2023/09/01 08:15:32;;;;;;;18.77;12.40;;;17.80;99.90;;;;;;5042656;28;20021;-72
2023/09/01 08:17:58;;;;;;;15.43;11.68;;;17.70;99.90;;;;;;5076789;28;20017;-72
2023/09/01 08:20:26;;;;;;;15.93;11.23;;;17.80;99.90;;;;;;5040172;28;20037;-73
2023/09/01 08:22:52;;;;;;;12.35;10.48;;;17.90;99.90;;;;;;5042566;28;20099;-74
2023/09/01 08:25:18;;;;;;;18.00;12.23;;;17.90;99.90;;;;;;5041453;28;20147;-73
2023/09/01 08:27:44;;;;;;;18.15;12.45;;;17.90;99.90;;;;;;5040469;28;20176;-76
2023/09/01 08:30:10;;;;;;;13.50;11.05;;;17.80;99.90;;;;;;5037545;28;20147;-76
2023/09/01 08:32:39;;;;;;;16.60;11.32;;;17.90;99.90;;;;;;5046853;28;20128;-75
2023/09/01 08:35:05;;;;;;;15.75;10.63;;;17.90;99.90;;;;;;5044643;28;20025;-76
2023/09/01 08:37:31;;;;;;;9.73;8.73;;;17.90;99.90;;;;;;5041945;28;20021;-72
2023/09/01 08:39:56;;;;;;;12.70;8.85;;;18.00;99.90;;;;;;5044093;28;20489;-73
2023/09/01 08:42:24;;;;;;;15.40;10.02;;;18.00;99.90;;;;;;5050150;28;20082;-75
2023/09/01 08:44:52;;;;;;;14.75;9.38;;;18.00;99.90;;;;;;5050003;28;20040;-75
2023/09/01 08:47:22;;;;;;;10.05;8.23;;;17.90;99.90;;;;;;5042645;28;20025;-73
2023/09/01 08:49:53;;;;;;;11.07;9.15;;;17.90;99.90;;;;;;5037920;28;20553;-73
2023/09/01 08:52:19;;;;;;;12.82;9.85;;;17.90;99.90;;;;;;5047560;28;20063;-73
2023/09/01 08:54:46;;;;;;;10.25;9.13;;;18.00;99.90;;;;;;5044459;28;20028;-73
2023/09/01 08:57:12;;;;;;;9.80;8.75;;;18.00;99.90;;;;;;5050506;28;20028;-74
2023/09/01 08:59:38;;;;;;;10.20;9.10;;;18.00;99.90;;;;;;5040183;28;20094;-74
2023/09/01 09:02:07;;;;;;;14.93;9.65;;;18.00;99.90;;;;;;5038520;28;20037;-72
2023/09/01 09:04:34;;;;;;;40.08;14.02;;;18.00;99.90;;;;;;5036860;28;20037;-73
2023/09/01 09:07:16;;;;;;;13.23;8.90;;;17.90;99.90;;;;;;5043231;28;20028;-72
2023/09/01 09:09:56;;;;;;;42.25;12.70;;;17.80;99.90;;;;;;5034066;28;20478;-72
2023/09/01 09:12:22;;;;;;;34.30;11.30;;;17.90;99.90;;;;;;5047110;28;20025;-71
2023/09/01 09:14:52;;;;;;;17.60;9.68;;;17.90;99.90;;;;;;5046283;28;20168;-72
2023/09/01 09:17:23;;;;;;;10.70;8.50;;;17.90;99.90;;;;;;5046308;28;20025;-71
2023/09/01 09:19:59;;;;;;;20.55;9.40;;;17.90;99.90;;;;;;5045066;28;20028;-71
2023/09/01 09:22:25;;;;;;;12.95;8.52;;;18.00;99.90;;;;;;5040800;28;20129;-72
2023/09/01 09:24:51;;;;;;;13.73;8.40;;;18.00;99.90;;;;;;5042916;28;20514;-74
2023/09/01 09:27:18;;;;;;;13.80;8.65;;;18.00;99.90;;;;;;5048262;28;20025;-72
2023/09/01 09:29:45;;;;;;;7.25;6.53;;;18.00;99.90;;;;;;5042844;28;20029;-80
2023/09/01 09:32:22;;;;;;;12.40;8.50;;;18.10;99.90;;;;;;5044398;28;20528;-76
2023/09/01 09:35:07;;;;;;;13.05;8.20;;;18.20;99.90;;;;;;5045041;28;20436;-73
2023/09/01 09:37:34;;;;;;;13.40;8.52;;;18.30;99.90;;;;;;5036934;28;20035;-73
2023/09/01 09:40:16;;;;;;;9.00;7.55;;;18.30;99.90;;;;;;5039279;28;20017;-80
2023/09/01 09:42:44;;;;;;;10.63;8.30;;;18.40;99.90;;;;;;5040709;28;20087;-73
2023/09/01 09:45:24;;;;;;;7.60;6.72;;;18.40;99.90;;;;;;5042676;28;20486;-79
2023/09/01 09:47:50;;;;;;;10.32;7.35;;;18.40;99.90;;;;;;5043159;28;20024;-77
2023/09/01 09:50:21;;;;;;;9.57;7.28;;;18.50;99.90;;;;;;5041047;28;20033;-77
2023/09/01 09:52:50;;;;;;;7.82;6.75;;;18.60;99.90;;;;;;5043113;28;20044;-75
2023/09/01 09:55:30;;;;;;;9.60;7.00;;;18.60;99.90;;;;;;5045046;28;20048;-75
2023/09/01 09:58:05;;;;;;;9.05;6.10;;;18.60;99.90;;;;;;5049640;28;20021;-75
2023/09/01 10:00:34;;;;;;;7.97;6.10;;;18.60;99.90;;;;;;5042517;28;20025;-74
2023/09/01 10:03:01;;;;;;;8.30;6.20;;;18.60;99.90;;;;;;5038993;28;20024;-76
2023/09/01 10:05:31;;;;;;;7.22;5.93;;;18.60;99.90;;;;;;5039676;28;20034;-72
2023/09/01 10:08:00;;;;;;;6.85;6.15;;;18.70;99.90;;;;;;5039811;28;20009;-74
2023/09/01 10:10:26;;;;;;;6.00;5.40;;;18.70;99.90;;;;;;5044011;28;20081;-72
2023/09/01 10:12:53;;;;;;;7.65;6.82;;;18.70;99.90;;;;;;5047752;28;20017;-77
2023/09/01 10:15:20;;;;;;;9.75;7.85;;;18.80;99.90;;;;;;5041342;28;20104;-72
2023/09/01 10:17:48;;;;;;;10.30;7.78;;;18.80;99.90;;;;;;5043067;28;20468;-73
2023/09/01 10:20:14;;;;;;;8.30;7.15;;;18.90;99.90;;;;;;5042430;28;20051;-72
2023/09/01 10:22:40;;;;;;;10.15;7.47;;;18.90;99.90;;;;;;5041571;28;20022;-74
2023/09/01 10:25:16;;;;;;;11.63;8.63;;;18.90;99.90;;;;;;5043560;28;20040;-72
2023/09/01 10:28:00;;;;;;;10.13;8.55;;;18.90;99.90;;;;;;5041452;28;20482;-78
2023/09/01 10:30:27;;;;;;;14.43;8.77;;;18.90;99.90;;;;;;5039773;28;20029;-73
2023/09/01 10:33:22;;;;;;;10.50;9.02;;;19.00;99.90;;;;;;5040151;28;20513;-76
2023/09/01 10:35:52;;;;;;;15.75;9.68;;;19.00;99.90;;;;;;5046669;28;20033;-75
2023/09/01 10:38:42;;;;;;;13.73;11.02;;;19.00;99.90;;;;;;5043064;28;20029;-72
2023/09/01 10:41:08;;;;;;;18.02;11.68;;;19.10;99.90;;;;;;5042980;28;20041;-73
2023/09/01 10:43:34;;;;;;;16.15;11.57;;;19.10;99.90;;;;;;5039410;28;20044;-73
2023/09/01 10:46:29;;;;;;;15.18;12.15;;;19.10;99.90;;;;;;5038689;28;20040;-72
2023/09/01 10:49:04;;;;;;;17.65;12.88;;;19.10;99.90;;;;;;5033724;28;20395;-73
2023/09/01 10:51:37;;;;;;;17.90;12.43;;;19.20;99.90;;;;;;5046877;28;20124;-72
2023/09/01 10:54:15;;;;;;;16.08;11.10;;;19.10;99.90;;;;;;5043548;28;20478;-74
2023/09/01 10:57:11;;;;;;;16.17;11.70;;;19.20;99.90;;;;;;5050427;28;20037;-77
2023/09/01 10:59:37;;;;;;;14.82;11.27;;;19.30;99.90;;;;;;5043027;28;20036;-78
2023/09/01 11:02:22;;;;;;;15.55;11.57;;;19.30;99.90;;;;;;5049567;28;20037;-73
2023/09/01 11:04:49;;;;;;;13.82;11.00;;;19.40;99.90;;;;;;5039236;28;20051;-73
2023/09/01 11:07:15;;;;;;;12.10;10.48;;;19.40;99.90;;;;;;5045815;28;20481;-74
2023/09/01 11:09:42;;;;;;;12.45;10.63;;;19.50;99.90;;;;;;5042025;28;20029;-78
2023/09/01 11:12:09;;;;;;;11.98;10.77;;;19.60;99.90;;;;;;5041535;28;20017;-82
2023/09/01 11:14:38;;;;;;;10.82;9.73;;;19.60;99.90;;;;;;5049909;28;20032;-78
2023/09/01 11:17:04;;;;;;;12.68;10.45;;;19.70;99.90;;;;;;5045115;28;20029;-84
2023/09/01 11:19:32;;;;;;;11.98;9.80;;;19.70;99.90;;;;;;5040438;28;20036;-73
2023/09/01 11:21:58;;;;;;;10.45;9.43;;;19.70;99.90;;;;;;5047679;28;20070;-81
2023/09/01 11:24:24;;;;;;;10.63;9.25;;;19.90;99.90;;;;;;5041024;28;20076;-79
2023/09/01 11:26:51;;;;;;;9.18;8.32;;;19.90;99.90;;;;;;5038550;28;20028;-80
2023/09/01 11:29:19;;;;;;;9.30;8.40;;;20.00;99.90;;;;;;5045935;28;20022;-83
2023/09/01 11:31:44;;;;;;;9.73;8.73;;;20.00;99.90;;;;;;5047726;28;20044;-77
2023/09/01 11:34:10;;;;;;;9.82;8.93;;;20.00;99.90;;;;;;5043736;28;20021;-77
2023/09/01 11:36:50;;;;;;;10.25;9.15;;;20.00;99.90;;;;;;5044295;28;20099;-76
2023/09/01 11:39:16;;;;;;;11.43;8.43;;;20.00;99.90;;;;;;5042470;28;20029;-75
2023/09/01 11:41:43;;;;;;;7.65;6.95;;;20.10;99.90;;;;;;5046795;28;20480;-73
2023/09/01 11:44:09;;;;;;;7.00;6.20;;;20.30;99.90;;;;;;5050776;28;20036;-73
2023/09/01 11:46:37;;;;;;;6.97;5.80;;;20.40;99.90;;;;;;5044278;28;20024;-72
2023/09/01 11:49:04;;;;;;;7.15;6.55;;;20.60;99.90;;;;;;5043100;28;20048;-73
2023/09/01 11:51:48;;;;;;;5.90;5.40;;;20.90;99.90;;;;;;5047060;28;20108;-73
2023/09/01 11:54:14;;;;;;;6.32;5.82;;;21.00;99.90;;;;;;5044427;28;20017;-72
2023/09/01 11:56:40;;;;;;;6.22;5.72;;;21.00;99.90;;;;;;5042347;28;20052;-72
2023/09/01 11:59:05;;;;;;;6.25;5.80;;;21.10;99.90;;;;;;5047401;28;20021;-73
2023/09/01 12:01:41;;;;;;;5.32;4.93;;;21.10;99.90;;;;;;5051657;28;20483;-74
2023/09/01 12:04:09;;;;;;;5.80;5.40;;;21.20;99.90;;;;;;5041661;28;20110;-73
2023/09/01 12:06:44;;;;;;;5.72;5.32;;;21.20;99.90;;;;;;5042867;28;20076;-81
2023/09/01 12:09:12;;;;;;;7.03;6.43;;;21.20;99.90;;;;;;5050266;28;20474;-72
2023/09/01 12:12:14;;;;;;;6.47;5.97;;;21.30;99.90;;;;;;5048668;28;20121;-72
2023/09/01 12:14:39;;;;;;;2.88;2.75;;;21.50;99.90;;;;;;5042687;28;20039;-77
2023/09/01 12:17:18;;;;;;;2.22;1.90;;;21.50;99.90;;;;;;5043020;28;20029;-77
2023/09/01 12:19:53;;;;;;;1.30;1.20;;;21.60;99.90;;;;;;5043411;28;20397;-74
2023/09/01 12:22:20;;;;;;;1.90;1.17;;;21.60;99.90;;;;;;5044197;28;20018;-76
2023/09/01 12:24:54;;;;;;;1.00;1.00;;;21.70;99.90;;;;;;5048014;28;20476;-75
2023/09/01 12:27:20;;;;;;;0.88;0.85;;;21.80;99.90;;;;;;5045440;28;20032;-79
2023/09/01 12:29:46;;;;;;;0.70;0.70;;;22.00;99.90;;;;;;5044016;28;20025;-73
2023/09/01 12:32:13;;;;;;;1.67;0.75;;;22.00;99.90;;;;;;5046071;28;20541;-82
2023/09/01 12:34:38;;;;;;;0.88;0.60;;;22.20;99.90;;;;;;5043210;28;20478;-72
2023/09/01 12:37:05;;;;;;;0.43;0.43;;;22.30;99.90;;;;;;5044974;28;20155;-76
2023/09/01 12:39:31;;;;;;;0.90;0.90;;;22.30;99.90;;;;;;5043723;28;20057;-74